sensor_id;sensor_type;location;lat;lon;timestamp;temperature;humidity
68217;DHT22;55037;52.354;4.992;2023-04-25T00:01:07;8.40;89.10
68217;DHT22;55037;52.354;4.992;2023-04-25T00:03:36;8.40;89.40
68217;DHT22;55037;52.354;4.992;2023-04-25T00:06:03;8.40;89.50
68217;DHT22;55037;52.354;4.992;2023-04-25T00:08:31;8.40;89.40
68217;DHT22;55037;52.354;4.992;2023-04-25T00:10:58;8.40;89.30
68217;DHT22;55037;52.354;4.992;2023-04-25T00:13:26;8.40;89.20
68217;DHT22;55037;52.354;4.992;2023-04-25T00:15:53;8.40;89.00
68217;DHT22;55037;52.354;4.992;2023-04-25T00:18:21;8.40;89.00
68217;DHT22;55037;52.354;4.992;2023-04-25T00:20:48;8.40;89.20
68217;DHT22;55037;52.354;4.992;2023-04-25T00:23:16;8.30;89.30
68217;DHT22;55037;52.354;4.992;2023-04-25T00:25:48;8.30;89.20
68217;DHT22;55037;52.354;4.992;2023-04-25T00:28:16;8.30;89.20
68217;DHT22;55037;52.354;4.992;2023-04-25T00:30:43;8.30;89.20
68217;DHT22;55037;52.354;4.992;2023-04-25T00:33:11;8.20;89.10
68217;DHT22;55037;52.354;4.992;2023-04-25T00:35:38;8.20;89.20
68217;DHT22;55037;52.354;4.992;2023-04-25T00:38:05;8.20;89.20
68217;DHT22;55037;52.354;4.992;2023-04-25T00:40:32;8.20;89.30
68217;DHT22;55037;52.354;4.992;2023-04-25T00:43:00;8.20;89.40
68217;DHT22;55037;52.354;4.992;2023-04-25T00:45:28;8.20;89.50
68217;DHT22;55037;52.354;4.992;2023-04-25T00:48:00;8.20;89.50
68217;DHT22;55037;52.354;4.992;2023-04-25T00:50:27;8.20;89.70
68217;DHT22;55037;52.354;4.992;2023-04-25T00:52:54;8.20;89.80
68217;DHT22;55037;52.354;4.992;2023-04-25T00:55:22;8.20;89.50
68217;DHT22;55037;52.354;4.992;2023-04-25T00:57:49;8.20;89.40
68217;DHT22;55037;52.354;4.992;2023-04-25T01:00:18;8.10;89.10
68217;DHT22;55037;52.354;4.992;2023-04-25T01:02:46;8.10;89.10
68217;DHT22;55037;52.354;4.992;2023-04-25T01:05:14;8.00;89.10
68217;DHT22;55037;52.354;4.992;2023-04-25T01:07:41;8.00;89.10
68217;DHT22;55037;52.354;4.992;2023-04-25T01:10:08;8.00;89.30
68217;DHT22;55037;52.354;4.992;2023-04-25T01:12:37;7.90;89.10
68217;DHT22;55037;52.354;4.992;2023-04-25T01:15:05;7.90;89.20
68217;DHT22;55037;52.354;4.992;2023-04-25T01:17:34;7.80;89.30
68217;DHT22;55037;52.354;4.992;2023-04-25T01:20:03;7.80;89.60
68217;DHT22;55037;52.354;4.992;2023-04-25T01:22:32;7.80;89.90
68217;DHT22;55037;52.354;4.992;2023-04-25T01:25:00;7.90;90.00
68217;DHT22;55037;52.354;4.992;2023-04-25T01:27:27;7.80;90.00
68217;DHT22;55037;52.354;4.992;2023-04-25T01:29:55;7.90;90.10
68217;DHT22;55037;52.354;4.992;2023-04-25T01:32:23;7.90;90.10
68217;DHT22;55037;52.354;4.992;2023-04-25T01:34:51;8.00;90.10
68217;DHT22;55037;52.354;4.992;2023-04-25T01:37:19;8.00;89.80
68217;DHT22;55037;52.354;4.992;2023-04-25T01:39:47;7.90;89.50
68217;DHT22;55037;52.354;4.992;2023-04-25T01:42:15;7.90;89.50
68217;DHT22;55037;52.354;4.992;2023-04-25T01:44:43;7.90;89.60
68217;DHT22;55037;52.354;4.992;2023-04-25T01:47:10;7.80;89.60
68217;DHT22;55037;52.354;4.992;2023-04-25T01:49:38;7.80;89.80
68217;DHT22;55037;52.354;4.992;2023-04-25T01:52:05;7.90;90.10
68217;DHT22;55037;52.354;4.992;2023-04-25T01:54:33;7.90;90.10
68217;DHT22;55037;52.354;4.992;2023-04-25T01:57:00;7.90;90.20
68217;DHT22;55037;52.354;4.992;2023-04-25T01:59:28;8.00;90.20
68217;DHT22;55037;52.354;4.992;2023-04-25T02:02:05;8.10;90.20
68217;DHT22;55037;52.354;4.992;2023-04-25T02:04:34;8.10;90.10
68217;DHT22;55037;52.354;4.992;2023-04-25T02:07:03;8.20;90.00
68217;DHT22;55037;52.354;4.992;2023-04-25T02:09:56;8.20;89.90
68217;DHT22;55037;52.354;4.992;2023-04-25T02:12:27;8.20;89.70
68217;DHT22;55037;52.354;4.992;2023-04-25T02:15:00;8.20;89.70
68217;DHT22;55037;52.354;4.992;2023-04-25T02:17:38;8.20;89.60
68217;DHT22;55037;52.354;4.992;2023-04-25T02:20:06;8.10;89.70
68217;DHT22;55037;52.354;4.992;2023-04-25T02:22:34;8.20;90.00
68217;DHT22;55037;52.354;4.992;2023-04-25T02:25:05;8.20;89.90
68217;DHT22;55037;52.354;4.992;2023-04-25T02:27:32;8.30;89.90
68217;DHT22;55037;52.354;4.992;2023-04-25T02:30:00;8.30;89.50
68217;DHT22;55037;52.354;4.992;2023-04-25T02:32:27;8.20;89.00
68217;DHT22;55037;52.354;4.992;2023-04-25T02:34:54;8.20;88.90
68217;DHT22;55037;52.354;4.992;2023-04-25T02:37:22;8.10;89.10
68217;DHT22;55037;52.354;4.992;2023-04-25T02:39:49;8.10;89.20
68217;DHT22;55037;52.354;4.992;2023-04-25T02:42:18;8.10;89.50
68217;DHT22;55037;52.354;4.992;2023-04-25T02:44:45;8.20;89.70
68217;DHT22;55037;52.354;4.992;2023-04-25T02:47:12;8.30;89.40
68217;DHT22;55037;52.354;4.992;2023-04-25T02:49:39;8.30;89.20
68217;DHT22;55037;52.354;4.992;2023-04-25T02:52:07;8.30;89.10
68217;DHT22;55037;52.354;4.992;2023-04-25T02:54:35;8.30;89.20
68217;DHT22;55037;52.354;4.992;2023-04-25T02:57:03;8.30;88.30
68217;DHT22;55037;52.354;4.992;2023-04-25T02:59:35;8.30;88.60
68217;DHT22;55037;52.354;4.992;2023-04-25T03:02:02;8.30;88.60
68217;DHT22;55037;52.354;4.992;2023-04-25T03:04:30;8.30;88.10
68217;DHT22;55037;52.354;4.992;2023-04-25T03:06:58;8.30;88.20
68217;DHT22;55037;52.354;4.992;2023-04-25T03:09:25;8.30;88.20
68217;DHT22;55037;52.354;4.992;2023-04-25T03:11:52;8.30;88.20
68217;DHT22;55037;52.354;4.992;2023-04-25T03:14:20;8.30;88.30
68217;DHT22;55037;52.354;4.992;2023-04-25T03:16:47;8.30;88.40
68217;DHT22;55037;52.354;4.992;2023-04-25T03:19:16;8.30;88.20
68217;DHT22;55037;52.354;4.992;2023-04-25T03:21:44;8.30;88.10
68217;DHT22;55037;52.354;4.992;2023-04-25T03:24:12;8.30;88.10
68217;DHT22;55037;52.354;4.992;2023-04-25T03:26:39;8.20;88.00
68217;DHT22;55037;52.354;4.992;2023-04-25T03:29:08;8.20;87.60
68217;DHT22;55037;52.354;4.992;2023-04-25T03:31:37;8.20;87.60
68217;DHT22;55037;52.354;4.992;2023-04-25T03:34:04;8.00;87.70
68217;DHT22;55037;52.354;4.992;2023-04-25T03:36:31;8.00;87.60
68217;DHT22;55037;52.354;4.992;2023-04-25T03:38:59;7.90;87.80
68217;DHT22;55037;52.354;4.992;2023-04-25T03:41:29;7.90;89.00
68217;DHT22;55037;52.354;4.992;2023-04-25T03:44:02;7.80;88.40
68217;DHT22;55037;52.354;4.992;2023-04-25T03:46:29;7.80;87.50
68217;DHT22;55037;52.354;4.992;2023-04-25T03:48:57;7.80;88.30
68217;DHT22;55037;52.354;4.992;2023-04-25T03:51:32;7.70;88.20
68217;DHT22;55037;52.354;4.992;2023-04-25T03:54:01;7.70;88.10
68217;DHT22;55037;52.354;4.992;2023-04-25T03:56:51;7.60;88.40
68217;DHT22;55037;52.354;4.992;2023-04-25T03:59:21;7.60;88.60
68217;DHT22;55037;52.354;4.992;2023-04-25T04:01:48;7.50;88.90
68217;DHT22;55037;52.354;4.992;2023-04-25T04:04:15;7.50;89.00
68217;DHT22;55037;52.354;4.992;2023-04-25T04:06:43;7.60;88.60
68217;DHT22;55037;52.354;4.992;2023-04-25T04:09:16;7.60;89.50
68217;DHT22;55037;52.354;4.992;2023-04-25T04:11:44;7.60;89.40
68217;DHT22;55037;52.354;4.992;2023-04-25T04:14:11;7.70;89.30
68217;DHT22;55037;52.354;4.992;2023-04-25T04:16:43;7.70;89.70
68217;DHT22;55037;52.354;4.992;2023-04-25T04:19:10;7.70;89.20
68217;DHT22;55037;52.354;4.992;2023-04-25T04:21:42;7.70;89.10
68217;DHT22;55037;52.354;4.992;2023-04-25T04:24:10;7.80;89.30
68217;DHT22;55037;52.354;4.992;2023-04-25T04:26:49;7.80;89.20
68217;DHT22;55037;52.354;4.992;2023-04-25T04:29:36;7.90;88.70
68217;DHT22;55037;52.354;4.992;2023-04-25T04:32:13;7.80;88.50
68217;DHT22;55037;52.354;4.992;2023-04-25T04:34:40;7.70;88.40
68217;DHT22;55037;52.354;4.992;2023-04-25T04:37:08;7.70;88.40
68217;DHT22;55037;52.354;4.992;2023-04-25T04:39:36;7.60;88.30
68217;DHT22;55037;52.354;4.992;2023-04-25T04:42:10;7.60;88.50
68217;DHT22;55037;52.354;4.992;2023-04-25T04:44:52;7.60;88.60
68217;DHT22;55037;52.354;4.992;2023-04-25T04:47:33;7.50;89.00
68217;DHT22;55037;52.354;4.992;2023-04-25T04:50:14;7.60;88.80
68217;DHT22;55037;52.354;4.992;2023-04-25T04:53:02;7.60;89.10
68217;DHT22;55037;52.354;4.992;2023-04-25T04:55:56;7.60;89.20
68217;DHT22;55037;52.354;4.992;2023-04-25T04:58:44;7.70;89.50
68217;DHT22;55037;52.354;4.992;2023-04-25T05:01:30;7.80;89.50
68217;DHT22;55037;52.354;4.992;2023-04-25T05:04:16;7.90;89.60
68217;DHT22;55037;52.354;4.992;2023-04-25T05:07:02;8.00;89.60
68217;DHT22;55037;52.354;4.992;2023-04-25T05:09:47;8.10;89.40
68217;DHT22;55037;52.354;4.992;2023-04-25T05:12:38;8.10;89.30
68217;DHT22;55037;52.354;4.992;2023-04-25T05:15:16;8.20;89.20
68217;DHT22;55037;52.354;4.992;2023-04-25T05:17:52;8.30;89.30
68217;DHT22;55037;52.354;4.992;2023-04-25T05:20:25;8.30;89.30
68217;DHT22;55037;52.354;4.992;2023-04-25T05:23:01;8.40;89.20
68217;DHT22;55037;52.354;4.992;2023-04-25T05:25:52;8.40;88.80
68217;DHT22;55037;52.354;4.992;2023-04-25T05:28:34;8.40;88.30
68217;DHT22;55037;52.354;4.992;2023-04-25T05:31:36;8.40;88.20
68217;DHT22;55037;52.354;4.992;2023-04-25T05:34:13;8.30;88.60
68217;DHT22;55037;52.354;4.992;2023-04-25T05:36:50;8.30;88.70
68217;DHT22;55037;52.354;4.992;2023-04-25T05:39:17;8.30;88.80
68217;DHT22;55037;52.354;4.992;2023-04-25T05:42:03;8.30;89.10
68217;DHT22;55037;52.354;4.992;2023-04-25T05:44:52;8.30;89.10
68217;DHT22;55037;52.354;4.992;2023-04-25T05:47:26;8.30;89.00
68217;DHT22;55037;52.354;4.992;2023-04-25T05:50:14;8.40;89.00
68217;DHT22;55037;52.354;4.992;2023-04-25T05:52:58;8.40;89.20
68217;DHT22;55037;52.354;4.992;2023-04-25T05:55:31;8.50;89.30
68217;DHT22;55037;52.354;4.992;2023-04-25T05:58:01;8.50;89.30
68217;DHT22;55037;52.354;4.992;2023-04-25T06:00:28;8.60;89.20
68217;DHT22;55037;52.354;4.992;2023-04-25T06:02:56;8.70;89.40
68217;DHT22;55037;52.354;4.992;2023-04-25T06:05:23;8.70;89.60
68217;DHT22;55037;52.354;4.992;2023-04-25T06:07:51;8.90;89.40
68217;DHT22;55037;52.354;4.992;2023-04-25T06:10:18;9.00;89.60
68217;DHT22;55037;52.354;4.992;2023-04-25T06:12:45;9.20;89.20
68217;DHT22;55037;52.354;4.992;2023-04-25T06:15:15;9.30;88.70
68217;DHT22;55037;52.354;4.992;2023-04-25T06:17:55;9.30;88.60
68217;DHT22;55037;52.354;4.992;2023-04-25T06:20:22;9.40;89.00
68217;DHT22;55037;52.354;4.992;2023-04-25T06:22:52;9.60;88.80
68217;DHT22;55037;52.354;4.992;2023-04-25T06:25:25;9.70;88.40
68217;DHT22;55037;52.354;4.992;2023-04-25T06:27:53;9.90;89.10
68217;DHT22;55037;52.354;4.992;2023-04-25T06:30:21;10.20;89.30
68217;DHT22;55037;52.354;4.992;2023-04-25T06:32:57;10.50;88.70
68217;DHT22;55037;52.354;4.992;2023-04-25T06:35:24;10.80;87.60
68217;DHT22;55037;52.354;4.992;2023-04-25T06:37:52;11.00;86.60
68217;DHT22;55037;52.354;4.992;2023-04-25T06:40:22;11.10;85.20
68217;DHT22;55037;52.354;4.992;2023-04-25T06:42:49;11.10;85.10
68217;DHT22;55037;52.354;4.992;2023-04-25T06:45:36;11.20;85.00
68217;DHT22;55037;52.354;4.992;2023-04-25T06:48:04;11.40;85.70
68217;DHT22;55037;52.354;4.992;2023-04-25T06:50:31;11.50;83.70
68217;DHT22;55037;52.354;4.992;2023-04-25T06:52:58;11.50;84.30
68217;DHT22;55037;52.354;4.992;2023-04-25T06:55:26;11.50;84.20
68217;DHT22;55037;52.354;4.992;2023-04-25T06:58:16;11.60;84.40
68217;DHT22;55037;52.354;4.992;2023-04-25T07:00:58;11.80;84.70
68217;DHT22;55037;52.354;4.992;2023-04-25T07:03:26;12.10;84.20
68217;DHT22;55037;52.354;4.992;2023-04-25T07:06:00;12.20;83.30
68217;DHT22;55037;52.354;4.992;2023-04-25T07:08:29;12.30;82.70
68217;DHT22;55037;52.354;4.992;2023-04-25T07:10:57;12.30;82.40
68217;DHT22;55037;52.354;4.992;2023-04-25T07:13:25;12.30;81.60
68217;DHT22;55037;52.354;4.992;2023-04-25T07:15:52;12.20;81.20
68217;DHT22;55037;52.354;4.992;2023-04-25T07:18:22;11.90;80.70
68217;DHT22;55037;52.354;4.992;2023-04-25T07:20:50;11.80;81.50
68217;DHT22;55037;52.354;4.992;2023-04-25T07:23:18;11.90;83.10
68217;DHT22;55037;52.354;4.992;2023-04-25T07:25:46;12.00;82.20
68217;DHT22;55037;52.354;4.992;2023-04-25T07:28:18;12.10;82.10
68217;DHT22;55037;52.354;4.992;2023-04-25T07:30:47;12.10;81.30
68217;DHT22;55037;52.354;4.992;2023-04-25T07:33:14;12.10;81.90
68217;DHT22;55037;52.354;4.992;2023-04-25T07:35:41;12.10;81.40
68217;DHT22;55037;52.354;4.992;2023-04-25T07:38:09;12.10;81.30
68217;DHT22;55037;52.354;4.992;2023-04-25T07:40:37;12.00;82.00
68217;DHT22;55037;52.354;4.992;2023-04-25T07:43:07;12.10;82.80
68217;DHT22;55037;52.354;4.992;2023-04-25T07:45:45;12.20;81.80
68217;DHT22;55037;52.354;4.992;2023-04-25T07:48:17;12.20;81.70
68217;DHT22;55037;52.354;4.992;2023-04-25T07:50:46;12.20;80.20
68217;DHT22;55037;52.354;4.992;2023-04-25T07:53:14;12.20;81.70
68217;DHT22;55037;52.354;4.992;2023-04-25T07:55:48;12.50;80.50
68217;DHT22;55037;52.354;4.992;2023-04-25T07:58:17;12.80;80.90
68217;DHT22;55037;52.354;4.992;2023-04-25T08:00:52;13.10;79.80
68217;DHT22;55037;52.354;4.992;2023-04-25T08:03:37;13.30;80.00
68217;DHT22;55037;52.354;4.992;2023-04-25T08:06:10;13.40;77.40
68217;DHT22;55037;52.354;4.992;2023-04-25T08:08:47;13.50;77.50
68217;DHT22;55037;52.354;4.992;2023-04-25T08:11:18;13.40;76.20
68217;DHT22;55037;52.354;4.992;2023-04-25T08:13:45;13.20;77.60
68217;DHT22;55037;52.354;4.992;2023-04-25T08:16:13;13.10;76.50
68217;DHT22;55037;52.354;4.992;2023-04-25T08:18:40;12.90;77.20
68217;DHT22;55037;52.354;4.992;2023-04-25T08:21:08;12.80;77.70
68217;DHT22;55037;52.354;4.992;2023-04-25T08:23:38;12.70;78.70
68217;DHT22;55037;52.354;4.992;2023-04-25T08:26:11;12.70;79.90
68217;DHT22;55037;52.354;4.992;2023-04-25T08:28:41;12.70;78.30
68217;DHT22;55037;52.354;4.992;2023-04-25T08:31:08;12.70;77.90
68217;DHT22;55037;52.354;4.992;2023-04-25T08:33:47;12.80;79.30
68217;DHT22;55037;52.354;4.992;2023-04-25T08:36:34;13.20;80.50
68217;DHT22;55037;52.354;4.992;2023-04-25T08:39:27;13.80;79.20
68217;DHT22;55037;52.354;4.992;2023-04-25T08:42:15;14.50;77.20
68217;DHT22;55037;52.354;4.992;2023-04-25T08:44:48;15.10;76.40
68217;DHT22;55037;52.354;4.992;2023-04-25T08:47:15;15.50;74.60
68217;DHT22;55037;52.354;4.992;2023-04-25T08:49:53;15.40;73.90
68217;DHT22;55037;52.354;4.992;2023-04-25T08:52:23;14.80;72.50
68217;DHT22;55037;52.354;4.992;2023-04-25T08:54:52;14.30;72.50
68217;DHT22;55037;52.354;4.992;2023-04-25T08:57:22;13.70;74.90
68217;DHT22;55037;52.354;4.992;2023-04-25T08:59:51;13.60;77.10
68217;DHT22;55037;52.354;4.992;2023-04-25T09:02:20;14.20;77.40
68217;DHT22;55037;52.354;4.992;2023-04-25T09:04:51;15.00;75.80
68217;DHT22;55037;52.354;4.992;2023-04-25T09:07:18;15.40;72.50
68217;DHT22;55037;52.354;4.992;2023-04-25T09:09:48;15.50;72.80
68217;DHT22;55037;52.354;4.992;2023-04-25T09:12:18;16.00;73.10
68217;DHT22;55037;52.354;4.992;2023-04-25T09:15:07;16.60;70.40
68217;DHT22;55037;52.354;4.992;2023-04-25T09:17:58;16.90;69.60
68217;DHT22;55037;52.354;4.992;2023-04-25T09:20:41;16.90;67.10
68217;DHT22;55037;52.354;4.992;2023-04-25T09:23:27;17.20;68.40
68217;DHT22;55037;52.354;4.992;2023-04-25T09:25:55;17.20;68.10
68217;DHT22;55037;52.354;4.992;2023-04-25T09:28:24;17.40;68.30
68217;DHT22;55037;52.354;4.992;2023-04-25T09:30:58;17.60;66.70
68217;DHT22;55037;52.354;4.992;2023-04-25T09:33:34;18.00;66.00
68217;DHT22;55037;52.354;4.992;2023-04-25T09:36:08;18.90;67.20
68217;DHT22;55037;52.354;4.992;2023-04-25T09:38:54;21.50;59.10
68217;DHT22;55037;52.354;4.992;2023-04-25T09:41:31;24.30;48.70
68217;DHT22;55037;52.354;4.992;2023-04-25T09:44:01;26.30;42.60
68217;DHT22;55037;52.354;4.992;2023-04-25T09:46:35;28.20;38.20
68217;DHT22;55037;52.354;4.992;2023-04-25T09:49:07;29.80;35.60
68217;DHT22;55037;52.354;4.992;2023-04-25T09:51:59;30.70;35.00
68217;DHT22;55037;52.354;4.992;2023-04-25T09:54:33;32.10;33.40
68217;DHT22;55037;52.354;4.992;2023-04-25T09:57:22;32.90;32.00
68217;DHT22;55037;52.354;4.992;2023-04-25T09:59:55;33.80;32.00
68217;DHT22;55037;52.354;4.992;2023-04-25T10:02:25;34.20;29.90
68217;DHT22;55037;52.354;4.992;2023-04-25T10:04:57;32.30;31.70
68217;DHT22;55037;52.354;4.992;2023-04-25T10:07:30;31.20;34.20
68217;DHT22;55037;52.354;4.992;2023-04-25T10:10:02;30.30;34.00
68217;DHT22;55037;52.354;4.992;2023-04-25T10:12:32;29.00;34.50
68217;DHT22;55037;52.354;4.992;2023-04-25T10:15:00;26.50;36.00
68217;DHT22;55037;52.354;4.992;2023-04-25T10:17:28;23.10;40.60
68217;DHT22;55037;52.354;4.992;2023-04-25T10:19:57;20.00;46.70
68217;DHT22;55037;52.354;4.992;2023-04-25T10:22:54;17.50;52.90
68217;DHT22;55037;52.354;4.992;2023-04-25T10:25:23;15.40;59.70
68217;DHT22;55037;52.354;4.992;2023-04-25T10:27:52;14.10;64.70
68217;DHT22;55037;52.354;4.992;2023-04-25T10:30:19;13.20;68.00
68217;DHT22;55037;52.354;4.992;2023-04-25T10:32:47;12.70;71.10
68217;DHT22;55037;52.354;4.992;2023-04-25T10:35:25;12.60;73.60
68217;DHT22;55037;52.354;4.992;2023-04-25T10:38:11;12.90;75.00
68217;DHT22;55037;52.354;4.992;2023-04-25T10:40:40;13.60;75.70
68217;DHT22;55037;52.354;4.992;2023-04-25T10:46:00;20.30;64.50
68217;DHT22;55037;52.354;4.992;2023-04-25T10:48:29;23.80;50.60
68217;DHT22;55037;52.354;4.992;2023-04-25T10:51:10;26.60;42.30
68217;DHT22;55037;52.354;4.992;2023-04-25T10:53:37;28.90;37.20
68217;DHT22;55037;52.354;4.992;2023-04-25T10:56:17;30.60;35.20
68217;DHT22;55037;52.354;4.992;2023-04-25T10:58:46;31.40;32.90
68217;DHT22;55037;52.354;4.992;2023-04-25T11:01:21;32.10;33.40
68217;DHT22;55037;52.354;4.992;2023-04-25T11:03:48;30.70;29.20
68217;DHT22;55037;52.354;4.992;2023-04-25T11:06:23;25.30;31.30
68217;DHT22;55037;52.354;4.992;2023-04-25T11:08:55;20.00;39.00
68217;DHT22;55037;52.354;4.992;2023-04-25T11:11:22;16.20;49.80
68217;DHT22;55037;52.354;4.992;2023-04-25T11:13:50;14.10;59.80
68217;DHT22;55037;52.354;4.992;2023-04-25T11:16:18;13.00;66.50
68217;DHT22;55037;52.354;4.992;2023-04-25T11:18:57;12.60;70.90
68217;DHT22;55037;52.354;4.992;2023-04-25T11:21:27;13.00;73.10
68217;DHT22;55037;52.354;4.992;2023-04-25T11:23:56;14.70;73.10
68217;DHT22;55037;52.354;4.992;2023-04-25T11:26:24;18.20;66.50
68217;DHT22;55037;52.354;4.992;2023-04-25T11:28:57;22.10;55.20
68217;DHT22;55037;52.354;4.992;2023-04-25T11:31:25;24.70;44.10
68217;DHT22;55037;52.354;4.992;2023-04-25T11:33:53;26.20;40.10
68217;DHT22;55037;52.354;4.992;2023-04-25T11:36:23;27.90;37.50
68217;DHT22;55037;52.354;4.992;2023-04-25T11:38:51;29.40;34.60
68217;DHT22;55037;52.354;4.992;2023-04-25T11:41:20;30.30;33.70
68217;DHT22;55037;52.354;4.992;2023-04-25T11:43:47;30.50;33.00
68217;DHT22;55037;52.354;4.992;2023-04-25T11:46:15;30.80;34.40
68217;DHT22;55037;52.354;4.992;2023-04-25T11:48:43;31.00;33.80
68217;DHT22;55037;52.354;4.992;2023-04-25T11:51:11;29.80;32.50
68217;DHT22;55037;52.354;4.992;2023-04-25T11:53:41;28.10;35.80
68217;DHT22;55037;52.354;4.992;2023-04-25T11:56:10;28.00;38.80
68217;DHT22;55037;52.354;4.992;2023-04-25T11:59:01;29.40;38.40
68217;DHT22;55037;52.354;4.992;2023-04-25T12:01:31;30.50;37.10
68217;DHT22;55037;52.354;4.992;2023-04-25T12:04:18;31.60;35.30
68217;DHT22;55037;52.354;4.992;2023-04-25T12:06:47;32.20;34.10
68217;DHT22;55037;52.354;4.992;2023-04-25T12:09:17;29.90;30.80
68217;DHT22;55037;52.354;4.992;2023-04-25T12:11:56;26.20;36.10
68217;DHT22;55037;52.354;4.992;2023-04-25T12:14:28;24.40;43.10
68217;DHT22;55037;52.354;4.992;2023-04-25T12:16:58;24.80;40.10
68217;DHT22;55037;52.354;4.992;2023-04-25T12:19:31;26.00;42.90
68217;DHT22;55037;52.354;4.992;2023-04-25T12:22:01;27.70;36.50
68217;DHT22;55037;52.354;4.992;2023-04-25T12:24:33;27.50;35.30
68217;DHT22;55037;52.354;4.992;2023-04-25T12:27:07;26.90;36.20
68217;DHT22;55037;52.354;4.992;2023-04-25T12:29:37;26.60;39.00
68217;DHT22;55037;52.354;4.992;2023-04-25T12:32:16;26.40;37.50
68217;DHT22;55037;52.354;4.992;2023-04-25T12:34:44;25.40;36.90
68217;DHT22;55037;52.354;4.992;2023-04-25T12:37:12;24.50;41.20
68217;DHT22;55037;52.354;4.992;2023-04-25T12:39:39;25.30;43.20
68217;DHT22;55037;52.354;4.992;2023-04-25T12:42:07;26.70;40.00
68217;DHT22;55037;52.354;4.992;2023-04-25T12:44:36;25.50;37.80
68217;DHT22;55037;52.354;4.992;2023-04-25T12:47:03;23.40;39.90
68217;DHT22;55037;52.354;4.992;2023-04-25T12:49:31;22.20;43.70
68217;DHT22;55037;52.354;4.992;2023-04-25T12:51:58;23.10;45.30
68217;DHT22;55037;52.354;4.992;2023-04-25T12:54:26;25.10;42.30
68217;DHT22;55037;52.354;4.992;2023-04-25T12:56:53;25.40;37.60
68217;DHT22;55037;52.354;4.992;2023-04-25T12:59:21;23.60;39.70
68217;DHT22;55037;52.354;4.992;2023-04-25T13:01:49;22.00;44.00
68217;DHT22;55037;52.354;4.992;2023-04-25T13:04:16;21.50;51.70
68217;DHT22;55037;52.354;4.992;2023-04-25T13:06:45;23.30;52.20
68217;DHT22;55037;52.354;4.992;2023-04-25T13:09:12;23.20;43.00
68217;DHT22;55037;52.354;4.992;2023-04-25T13:11:39;21.80;45.80
68217;DHT22;55037;52.354;4.992;2023-04-25T13:14:08;22.20;51.60
68217;DHT22;55037;52.354;4.992;2023-04-25T13:16:35;23.30;46.50
68217;DHT22;55037;52.354;4.992;2023-04-25T13:19:03;22.60;45.80
68217;DHT22;55037;52.354;4.992;2023-04-25T13:21:30;21.20;45.30
68217;DHT22;55037;52.354;4.992;2023-04-25T13:24:01;20.00;51.00
68217;DHT22;55037;52.354;4.992;2023-04-25T13:26:29;21.40;57.80
68217;DHT22;55037;52.354;4.992;2023-04-25T13:28:56;23.50;55.10
68217;DHT22;55037;52.354;4.992;2023-04-25T13:31:24;24.30;43.20
68217;DHT22;55037;52.354;4.992;2023-04-25T13:33:51;22.10;41.30
68217;DHT22;55037;52.354;4.992;2023-04-25T13:36:19;20.40;49.80
68217;DHT22;55037;52.354;4.992;2023-04-25T13:38:47;19.90;52.80
68217;DHT22;55037;52.354;4.992;2023-04-25T13:41:16;18.90;53.90
68217;DHT22;55037;52.354;4.992;2023-04-25T13:43:46;18.10;57.70
68217;DHT22;55037;52.354;4.992;2023-04-25T13:46:15;17.80;63.70
68217;DHT22;55037;52.354;4.992;2023-04-25T13:49:03;19.60;67.10
68217;DHT22;55037;52.354;4.992;2023-04-25T13:51:39;21.50;61.30
68217;DHT22;55037;52.354;4.992;2023-04-25T13:54:07;22.80;58.80
68217;DHT22;55037;52.354;4.992;2023-04-25T13:56:34;24.10;53.30
68217;DHT22;55037;52.354;4.992;2023-04-25T13:59:02;24.50;47.90
68217;DHT22;55037;52.354;4.992;2023-04-25T14:01:29;24.60;42.90
68217;DHT22;55037;52.354;4.992;2023-04-25T14:04:02;23.20;45.30
68217;DHT22;55037;52.354;4.992;2023-04-25T14:06:32;21.40;47.60
68217;DHT22;55037;52.354;4.992;2023-04-25T14:08:59;20.30;53.50
68217;DHT22;55037;52.354;4.992;2023-04-25T14:11:31;20.60;55.90
68217;DHT22;55037;52.354;4.992;2023-04-25T14:13:58;21.40;56.70
68217;DHT22;55037;52.354;4.992;2023-04-25T14:16:26;22.00;55.20
68217;DHT22;55037;52.354;4.992;2023-04-25T14:18:53;22.40;52.60
68217;DHT22;55037;52.354;4.992;2023-04-25T14:21:21;21.40;49.60
68217;DHT22;55037;52.354;4.992;2023-04-25T14:23:48;20.00;49.30
68217;DHT22;55037;52.354;4.992;2023-04-25T14:26:16;18.20;45.40
68217;DHT22;55037;52.354;4.992;2023-04-25T14:28:43;16.40;46.00
68217;DHT22;55037;52.354;4.992;2023-04-25T14:31:11;14.80;52.80
68217;DHT22;55037;52.354;4.992;2023-04-25T14:33:38;14.00;61.00
68217;DHT22;55037;52.354;4.992;2023-04-25T14:36:09;13.60;64.40
68217;DHT22;55037;52.354;4.992;2023-04-25T14:38:36;13.50;67.00
68217;DHT22;55037;52.354;4.992;2023-04-25T14:41:03;13.60;67.00
68217;DHT22;55037;52.354;4.992;2023-04-25T14:43:30;14.30;71.40
68217;DHT22;55037;52.354;4.992;2023-04-25T14:45:58;15.30;72.40
68217;DHT22;55037;52.354;4.992;2023-04-25T14:48:25;16.70;72.10
68217;DHT22;55037;52.354;4.992;2023-04-25T14:50:53;18.20;68.20
68217;DHT22;55037;52.354;4.992;2023-04-25T14:53:20;18.80;64.70
68217;DHT22;55037;52.354;4.992;2023-04-25T14:55:47;18.90;65.10
68217;DHT22;55037;52.354;4.992;2023-04-25T14:58:15;19.20;64.10
68217;DHT22;55037;52.354;4.992;2023-04-25T15:00:43;19.40;61.70
68217;DHT22;55037;52.354;4.992;2023-04-25T15:03:11;19.00;61.60
68217;DHT22;55037;52.354;4.992;2023-04-25T15:05:40;18.70;60.00
68217;DHT22;55037;52.354;4.992;2023-04-25T15:08:08;18.70;59.70
68217;DHT22;55037;52.354;4.992;2023-04-25T15:10:35;18.40;59.40
68217;DHT22;55037;52.354;4.992;2023-04-25T15:13:03;17.90;61.20
68217;DHT22;55037;52.354;4.992;2023-04-25T15:15:30;17.40;60.80
68217;DHT22;55037;52.354;4.992;2023-04-25T15:17:58;17.00;62.90
68217;DHT22;55037;52.354;4.992;2023-04-25T15:20:25;16.50;65.10
68217;DHT22;55037;52.354;4.992;2023-04-25T15:22:53;16.50;65.10
68217;DHT22;55037;52.354;4.992;2023-04-25T15:25:21;16.30;62.70
68217;DHT22;55037;52.354;4.992;2023-04-25T15:27:48;16.10;65.70
68217;DHT22;55037;52.354;4.992;2023-04-25T15:30:17;15.90;61.20
68217;DHT22;55037;52.354;4.992;2023-04-25T15:32:45;15.70;63.40
68217;DHT22;55037;52.354;4.992;2023-04-25T15:35:14;15.60;66.50
68217;DHT22;55037;52.354;4.992;2023-04-25T15:37:42;15.70;67.40
68217;DHT22;55037;52.354;4.992;2023-04-25T15:40:14;15.70;67.00
68217;DHT22;55037;52.354;4.992;2023-04-25T15:42:47;15.60;67.50
68217;DHT22;55037;52.354;4.992;2023-04-25T15:45:20;15.40;66.90
68217;DHT22;55037;52.354;4.992;2023-04-25T15:47:49;15.40;66.50
68217;DHT22;55037;52.354;4.992;2023-04-25T15:50:18;15.30;67.30
68217;DHT22;55037;52.354;4.992;2023-04-25T15:52:47;15.40;68.70
68217;DHT22;55037;52.354;4.992;2023-04-25T15:55:15;15.90;69.10
68217;DHT22;55037;52.354;4.992;2023-04-25T15:57:43;16.40;67.20
68217;DHT22;55037;52.354;4.992;2023-04-25T16:00:12;16.10;64.30
68217;DHT22;55037;52.354;4.992;2023-04-25T16:02:40;15.50;65.80
68217;DHT22;55037;52.354;4.992;2023-04-25T16:05:08;15.60;68.10